KMKO/MKO METAR and TAF weather

Enter ICAO airport designator
Station Type Date Time Source
KMKO METAR 2022/06/27 06:53 UTC NOAA

KMKO 270653Z AUTO 36006KT 10SM CLR 22/14 A3025 RMK AO2 SLP235 T02170139


Station Type Date Time Source
KMKO Decoded METAR 2022/06/27 06:53 UTC NOAA

MUSKOGEE DAVIS FIELD, OK, United States (KMKO) 35-39N 95-22W 185M
Jun 27, 2022 - 02:53 AM EDT / 2022.06.27 0653 UTC
Wind: from the N (360 degrees) at 7 MPH (6 KT):0
Visibility: 10 mile(s):0
Sky conditions: clear
Temperature: 71.1 F (21.7 C)
Dew Point: 57.0 F (13.9 C)
Relative Humidity: 61%
Pressure (altimeter): 30.25 in. Hg (1024 hPa)
ob: KMKO 270653Z AUTO 36006KT 10SM CLR 22/14 A3025 RMK AO2 SLP235 T02170139
cycle: 7

Station Type Date Time Source
KMKO TAF UTC NOAA

Error!

Example: see airport list